createdAt,value
2022-11-09T00:02:13.153Z,96947.88
2022-11-09T00:07:16.796Z,96936.41
2022-11-09T00:12:22.208Z,96947.63
2022-11-09T00:17:25.732Z,96948.09
2022-11-09T00:22:29.275Z,96951.44
2022-11-09T00:27:34.225Z,96951.75
2022-11-09T00:32:37.650Z,96941.44
2022-11-09T00:37:41.102Z,96932.63
2022-11-09T00:42:48.194Z,96938.47
2022-11-09T00:47:52.621Z,96942.09
2022-11-09T00:52:57.022Z,96940.19
2022-11-09T00:58:02.029Z,96946.63
2022-11-09T01:03:05.525Z,96933.81
2022-11-09T01:08:09.397Z,96928.59
2022-11-09T01:13:16.421Z,96930.19
2022-11-09T01:18:22.464Z,96931.22
2022-11-09T01:23:25.908Z,96941.00
2022-11-09T01:28:31.226Z,96935.41
2022-11-09T01:33:34.949Z,96931.41
2022-11-09T01:38:40.390Z,96920.47
2022-11-09T01:43:47.140Z,96908.88
2022-11-09T01:48:54.576Z,96909.44
2022-11-09T01:54:02.318Z,96891.78
2022-11-09T01:59:11.489Z,96896.84
2022-11-09T02:04:18.472Z,96904.97
2022-11-09T02:09:27.882Z,96899.38
2022-11-09T02:14:34.394Z,96896.69
2022-11-09T02:19:37.824Z,96895.38
2022-11-09T02:24:42.646Z,96899.06
2022-11-09T02:29:48.734Z,96906.03
2022-11-09T02:34:52.360Z,96907.69
2022-11-09T02:39:59.835Z,96913.78
2022-11-09T02:45:03.502Z,96917.94
2022-11-09T02:50:07.619Z,96915.56
2022-11-09T02:55:12.782Z,96949.63
2022-11-09T03:00:18.483Z,96929.44
2022-11-09T03:05:22.095Z,96913.78
2022-11-09T03:10:27.294Z,96921.88
2022-11-09T03:15:32.138Z,96899.13
2022-11-09T03:20:36.220Z,96913.38
2022-11-09T03:25:41.336Z,96918.25
2022-11-09T03:30:45.639Z,96933.19
2022-11-09T03:35:51.265Z,96938.91
2022-11-09T03:40:57.468Z,96929.69
2022-11-09T03:46:00.942Z,96946.97
2022-11-09T03:51:04.455Z,96942.66
2022-11-09T03:56:09.733Z,96957.53
2022-11-09T04:01:13.325Z,96937.91
2022-11-09T04:06:17.059Z,96938.19
2022-11-09T04:11:22.011Z,96935.44
2022-11-09T04:16:25.644Z,96952.97
2022-11-09T04:21:29.286Z,96956.47
2022-11-09T04:26:34.188Z,96954.38
2022-11-09T04:31:38.263Z,96946.84
2022-11-09T04:36:41.727Z,96941.56
2022-11-09T04:41:46.937Z,96926.78
2022-11-09T04:46:50.562Z,96930.53
2022-11-09T04:51:54.436Z,96928.44
2022-11-09T04:57:01.233Z,96924.69
2022-11-09T05:02:05.346Z,96934.28
2022-11-09T05:07:10.300Z,96922.59
2022-11-09T05:12:15.920Z,96919.66
2022-11-09T05:17:19.624Z,96919.88
2022-11-09T05:22:41.497Z,96903.09
2022-11-09T05:27:47.138Z,96893.34
2022-11-09T05:32:51.461Z,96887.88
2022-11-09T05:37:55.730Z,96868.69
2022-11-09T05:43:01.531Z,96857.06
2022-11-09T05:48:06.368Z,96837.72
2022-11-09T05:53:14.255Z,96844.94
2022-11-09T05:58:20.778Z,96851.38
2022-11-09T06:03:24.478Z,96856.56
2022-11-09T06:08:27.977Z,96854.72
2022-11-09T06:13:33.353Z,96859.56
2022-11-09T06:18:37.857Z,96870.06
2022-11-09T06:23:41.475Z,96880.09
2022-11-09T06:28:46.352Z,96875.19
2022-11-09T06:33:50.973Z,96887.22
2022-11-09T06:38:54.833Z,96914.09
2022-11-09T06:49:33.486Z,96924.81
2022-11-09T06:54:37.220Z,96912.53
2022-11-09T06:59:41.169Z,96919.50
2022-11-09T07:04:46.220Z,96921.31
2022-11-09T07:09:50.067Z,96917.22
2022-11-09T07:14:53.938Z,96928.25
2022-11-09T07:19:59.129Z,96922.09
2022-11-09T07:25:03.066Z,96929.56
2022-11-09T07:30:07.891Z,96936.31
2022-11-09T07:35:12.850Z,96938.88
2022-11-09T07:40:16.618Z,96957.59
2022-11-09T07:45:20.300Z,96956.47
2022-11-09T07:50:25.469Z,96950.19
2022-11-09T07:55:31.211Z,96957.31
2022-11-09T08:00:36.774Z,96974.53
2022-11-09T08:05:41.809Z,96977.59
2022-11-09T08:10:51.539Z,96979.66
2022-11-09T08:15:55.095Z,96983.81
2022-11-09T08:21:02.714Z,96981.81
2022-11-09T08:26:07.457Z,96979.16
2022-11-09T08:31:10.969Z,96971.41
2022-11-09T08:36:17.603Z,96966.72
2022-11-09T08:41:21.029Z,96968.28
2022-11-09T08:46:24.477Z,96954.34
2022-11-09T08:51:29.413Z,96942.72
2022-11-09T08:56:33.209Z,96936.00
2022-11-09T09:01:36.829Z,96940.13
2022-11-09T09:06:41.693Z,96938.69
2022-11-09T09:11:45.247Z,96939.75
2022-11-09T09:16:48.762Z,96921.88
2022-11-09T09:21:53.884Z,96904.84
2022-11-09T09:26:57.342Z,96901.00
2022-11-09T09:32:01.246Z,96895.50
2022-11-09T09:37:06.069Z,96882.28
2022-11-09T09:42:17.285Z,96925.47
2022-11-09T09:47:25.964Z,96939.84
2022-11-09T09:52:40.255Z,96949.28
2022-11-09T09:57:47.433Z,96941.34
2022-11-09T10:02:51.211Z,96935.13
2022-11-09T10:08:03.971Z,96945.00
2022-11-09T10:13:48.437Z,96935.69
2022-11-09T10:19:12.387Z,96953.66
2022-11-09T10:24:29.106Z,96967.50
2022-11-09T10:29:37.078Z,96958.16
2022-11-09T10:34:47.671Z,96961.22
2022-11-09T10:39:56.539Z,96941.94
2022-11-09T10:45:30.760Z,96966.84
2022-11-09T10:50:54.067Z,96971.69
2022-11-09T10:56:21.746Z,96984.13
2022-11-09T11:01:43.943Z,96988.13
2022-11-09T11:07:20.620Z,96985.59
2022-11-09T11:12:46.648Z,96994.34
2022-11-09T11:18:17.397Z,96991.09
2022-11-09T11:23:39.283Z,96984.63
2022-11-09T11:29:12.347Z,96978.28
2022-11-09T11:34:58.981Z,96974.19
2022-11-09T11:40:26.771Z,96971.22
2022-11-09T11:45:59.489Z,96965.69
2022-11-09T11:51:32.529Z,96960.47
2022-11-09T11:57:17.338Z,96969.69
2022-11-09T12:03:14.939Z,96957.59
2022-11-09T12:08:51.829Z,96960.22
2022-11-09T12:14:25.487Z,96964.22
2022-11-09T12:20:04.395Z,96964.66
2022-11-09T12:25:33.084Z,96946.31
2022-11-09T12:31:05.869Z,96967.72
2022-11-09T12:36:35.942Z,96949.00
2022-11-09T12:42:04.497Z,96952.28
2022-11-09T12:47:32.667Z,96958.53
2022-11-09T12:52:57.166Z,96953.69
2022-11-09T12:58:25.023Z,96942.66
2022-11-09T13:03:56.286Z,96940.00
2022-11-09T13:09:26.538Z,96955.53
2022-11-09T13:14:55.138Z,96948.06
2022-11-09T13:20:58.051Z,96966.78
2022-11-09T13:26:25.968Z,96957.16
2022-11-09T13:32:33.578Z,96961.53
2022-11-09T13:37:58.019Z,96958.50
2022-11-09T13:43:27.370Z,96964.72
2022-11-09T13:48:52.177Z,96959.97
2022-11-09T13:54:30.053Z,96964.41
2022-11-09T13:59:54.201Z,96980.13
2022-11-09T14:05:26.352Z,96968.56
2022-11-09T14:11:14.893Z,96980.66
2022-11-09T14:16:50.092Z,96981.38
2022-11-09T14:22:17.086Z,96974.03
2022-11-09T14:27:47.680Z,96969.41
2022-11-09T14:33:35.050Z,96974.47
2022-11-09T14:38:59.900Z,96963.03
2022-11-09T14:44:27.152Z,96978.06
2022-11-09T14:49:51.480Z,96982.88
2022-11-09T14:55:16.328Z,96995.53
2022-11-09T15:00:43.186Z,96987.41
2022-11-09T15:06:11.281Z,96987.06
2022-11-09T15:11:35.980Z,96992.81
2022-11-09T15:17:09.104Z,97003.03
2022-11-09T15:22:52.527Z,96993.63
2022-11-09T15:28:24.610Z,97000.22
2022-11-09T15:33:52.710Z,96999.25
2022-11-09T15:39:17.779Z,96992.63
2022-11-09T15:44:40.125Z,96993.44
2022-11-09T15:50:05.669Z,96990.41
2022-11-09T15:55:29.297Z,96997.59
2022-11-09T16:00:51.066Z,97002.47
2022-11-09T16:06:19.074Z,97007.00
2022-11-09T16:11:42.699Z,97021.16
2022-11-09T16:17:04.718Z,97021.81
2022-11-09T16:22:30.952Z,97029.97
2022-11-09T16:27:54.800Z,97036.75
2022-11-09T16:33:16.760Z,97039.72
2022-11-09T16:38:43.782Z,97049.84
2022-11-09T16:44:07.869Z,97054.66
2022-11-09T16:49:29.616Z,97057.47
2022-11-09T16:54:51.686Z,97058.81
2022-11-09T17:00:19.819Z,97068.25
2022-11-09T17:05:42.550Z,97078.38
2022-11-09T17:11:09.132Z,97088.13
2022-11-09T17:16:32.895Z,97088.53
2022-11-09T17:21:55.057Z,97091.75
2022-11-09T17:27:17.292Z,97095.00
2022-11-09T17:32:41.477Z,97100.91
2022-11-09T17:38:03.414Z,97101.91
2022-11-09T17:43:25.799Z,97108.91
2022-11-09T17:48:51.253Z,97135.66
2022-11-09T17:54:14.759Z,97136.72
2022-11-09T17:59:37.303Z,97142.53
2022-11-09T18:05:00.568Z,97141.66
2022-11-09T18:10:22.542Z,97156.75
2022-11-09T18:15:44.674Z,97154.84
2022-11-09T18:21:09.753Z,97149.47
2022-11-09T18:26:32.887Z,97150.91
2022-11-09T18:31:54.763Z,97152.19
2022-11-09T18:37:18.111Z,97157.63
2022-11-09T18:42:40.159Z,97158.28
2022-11-09T18:48:02.366Z,97153.47
2022-11-09T18:53:27.519Z,97167.06
2022-11-09T18:58:50.997Z,97170.94
2022-11-09T19:04:15.415Z,97176.34
2022-11-09T19:09:39.617Z,97180.66
2022-11-09T19:15:01.660Z,97170.97
2022-11-09T19:20:23.836Z,97189.00
2022-11-09T19:25:47.284Z,97188.41
2022-11-09T19:31:12.821Z,97189.13
2022-11-09T19:36:34.947Z,97197.50
2022-11-09T19:41:58.732Z,97202.41
2022-11-09T19:47:20.764Z,97213.03
2022-11-09T19:52:44.742Z,97222.28
2022-11-09T19:58:08.293Z,97235.84
2022-11-09T20:03:30.654Z,97229.84
2022-11-09T20:08:53.972Z,97240.41
2022-11-09T20:14:18.303Z,97249.94
2022-11-09T20:19:40.266Z,97246.72
2022-11-09T20:25:02.762Z,97257.38
2022-11-09T20:30:26.430Z,97257.19
2022-11-09T20:35:53.291Z,97266.03
2022-11-09T20:41:15.524Z,97280.44
2022-11-09T20:46:39.312Z,97286.41
2022-11-09T20:52:01.388Z,97301.47
2022-11-09T20:57:23.459Z,97302.56
2022-11-09T21:02:47.428Z,97312.06
2022-11-09T21:08:09.514Z,97316.97
2022-11-09T21:13:32.675Z,97316.19
2022-11-09T21:18:56.459Z,97331.88
2022-11-09T21:24:35.786Z,97328.34
2022-11-09T21:29:58.371Z,97330.88
2022-11-09T21:35:22.258Z,97341.22
2022-11-09T21:40:45.114Z,97345.59
2022-11-09T21:46:08.008Z,97348.91
2022-11-09T21:51:31.846Z,97362.44
2022-11-09T21:56:54.376Z,97368.59
2022-11-09T22:02:16.119Z,97380.13
2022-11-09T22:07:40.063Z,97385.69
2022-11-09T22:13:19.558Z,97386.94
2022-11-09T22:18:59.451Z,97388.72
2022-11-09T22:24:23.000Z,97402.59
2022-11-09T22:29:45.205Z,97407.47
2022-11-09T22:35:07.696Z,97426.88
2022-11-09T22:40:31.135Z,97428.03
2022-11-09T22:45:53.192Z,97438.56
2022-11-09T22:51:17.374Z,97446.31
2022-11-09T22:56:40.977Z,97456.28
2022-11-09T23:02:02.886Z,97449.81
2022-11-09T23:07:24.975Z,97471.03
2022-11-09T23:12:48.423Z,97471.28
2022-11-09T23:18:27.799Z,97471.25
2022-11-09T23:23:50.810Z,97471.25
2022-11-09T23:29:14.395Z,97487.06
2022-11-09T23:34:36.588Z,97489.28
2022-11-09T23:39:58.752Z,97498.41
2022-11-09T23:45:22.604Z,97501.91
2022-11-09T23:50:45.861Z,97507.31
2022-11-09T23:56:09.953Z,97510.44
